createdAt,value
2023-02-02T00:00:48.449Z,21.57
2023-02-02T00:01:52.712Z,21.56
2023-02-02T00:02:57.051Z,21.56
2023-02-02T00:04:01.580Z,21.55
2023-02-02T00:05:06.019Z,21.55
2023-02-02T00:06:10.299Z,21.58
2023-02-02T00:07:14.555Z,21.58
2023-02-02T00:08:18.795Z,21.63
2023-02-02T00:09:23.081Z,21.59
2023-02-02T00:10:27.324Z,21.59
2023-02-02T00:11:31.570Z,21.57
2023-02-02T00:12:35.859Z,21.58
2023-02-02T00:13:40.103Z,21.59
2023-02-02T00:14:44.353Z,21.55
2023-02-02T00:15:48.667Z,21.55
2023-02-02T00:16:53.114Z,21.57
2023-02-02T00:17:57.384Z,21.56
2023-02-02T00:19:01.648Z,21.59
2023-02-02T00:20:05.893Z,21.57
2023-02-02T00:21:10.137Z,21.56
2023-02-02T00:22:14.387Z,21.58
2023-02-02T00:23:18.666Z,21.53
2023-02-02T00:24:22.999Z,21.55
2023-02-02T00:25:27.265Z,21.52
2023-02-02T00:26:31.521Z,21.5
2023-02-02T00:27:35.916Z,21.54
2023-02-02T00:28:40.163Z,21.54
2023-02-02T00:29:44.429Z,21.53
2023-02-02T00:30:48.690Z,21.56
2023-02-02T00:31:53.160Z,21.52
2023-02-02T00:32:57.755Z,21.51
2023-02-02T00:34:02.077Z,21.52
2023-02-02T00:35:06.336Z,21.53
2023-02-02T00:36:10.587Z,21.52
2023-02-02T00:37:14.887Z,21.5
2023-02-02T00:38:19.163Z,21.51
2023-02-02T00:39:23.406Z,21.5
2023-02-02T00:40:27.735Z,21.51
2023-02-02T00:41:31.995Z,21.5
2023-02-02T00:42:36.281Z,21.51
2023-02-02T00:43:40.555Z,21.49
2023-02-02T00:44:44.815Z,21.48
2023-02-02T00:45:49.162Z,21.46
2023-02-02T00:46:53.487Z,21.43
2023-02-02T00:47:57.746Z,21.46
2023-02-02T00:49:01.972Z,21.45
2023-02-02T00:50:06.279Z,21.45
2023-02-02T00:51:10.544Z,21.44
2023-02-02T00:52:14.804Z,21.45
2023-02-02T00:53:19.072Z,21.45
2023-02-02T00:54:23.369Z,21.45
2023-02-02T00:55:27.663Z,21.49
2023-02-02T00:56:31.920Z,21.48
2023-02-02T00:57:36.303Z,21.48
2023-02-02T00:58:40.579Z,21.44
2023-02-02T00:59:44.849Z,21.47
2023-02-02T01:00:49.121Z,21.46
2023-02-02T01:01:53.617Z,21.47
2023-02-02T01:02:58.011Z,21.45
2023-02-02T01:04:02.333Z,21.45
2023-02-02T01:05:06.610Z,21.42
2023-02-02T01:06:10.898Z,21.42
2023-02-02T01:07:15.174Z,21.41
2023-02-02T01:08:19.421Z,21.4
2023-02-02T01:09:23.657Z,21.37
2023-02-02T01:10:28.062Z,21.38
2023-02-02T01:11:32.340Z,21.39
2023-02-02T01:12:36.673Z,21.41
2023-02-02T01:13:40.940Z,21.42
2023-02-02T01:14:45.187Z,21.4
2023-02-02T01:15:49.418Z,21.39
2023-02-02T01:16:53.684Z,21.38
2023-02-02T01:17:57.980Z,21.39
2023-02-02T01:19:02.297Z,21.4
2023-02-02T01:20:06.598Z,21.38
2023-02-02T01:21:10.924Z,21.37
2023-02-02T01:22:15.221Z,21.38
2023-02-02T01:23:19.476Z,21.37
2023-02-02T01:24:23.760Z,21.39
2023-02-02T01:25:28.033Z,21.37
2023-02-02T01:26:32.380Z,21.37
2023-02-02T01:27:36.745Z,21.38
2023-02-02T01:28:41.194Z,21.37
2023-02-02T01:29:45.417Z,21.35
2023-02-02T01:30:49.703Z,21.36
2023-02-02T01:31:54.201Z,21.35
2023-02-02T01:32:58.675Z,21.34
2023-02-02T01:34:02.954Z,21.32
2023-02-02T01:35:07.209Z,21.33
2023-02-02T01:36:11.485Z,21.32
2023-02-02T01:37:15.726Z,21.32
2023-02-02T01:38:19.993Z,21.32
2023-02-02T01:39:24.238Z,21.31
2023-02-02T01:40:28.499Z,21.31
2023-02-02T01:41:32.759Z,21.29
2023-02-02T01:42:37.026Z,21.3
2023-02-02T01:43:41.292Z,21.3
2023-02-02T01:44:45.599Z,21.28
2023-02-02T01:45:49.901Z,21.28
2023-02-02T01:46:54.319Z,21.28
2023-02-02T01:47:58.600Z,21.31
2023-02-02T01:49:02.857Z,21.3
2023-02-02T01:50:07.178Z,21.31
2023-02-02T01:51:11.482Z,21.3
2023-02-02T01:52:15.789Z,21.27
2023-02-02T01:53:20.065Z,21.28
2023-02-02T01:54:24.323Z,21.28
2023-02-02T01:55:28.593Z,21.3
2023-02-02T01:56:32.886Z,21.26
2023-02-02T01:57:37.180Z,21.24
2023-02-02T01:58:41.451Z,21.25
2023-02-02T01:59:45.687Z,21.27
2023-02-02T02:00:49.957Z,21.25
2023-02-02T02:01:54.243Z,21.25
2023-02-02T02:02:58.515Z,21.27
2023-02-02T02:04:02.797Z,21.26
2023-02-02T02:05:07.048Z,21.24
2023-02-02T02:06:11.401Z,21.23
2023-02-02T02:07:15.803Z,21.23
2023-02-02T02:08:20.096Z,21.23
2023-02-02T02:09:24.376Z,21.23
2023-02-02T02:10:28.653Z,21.22
2023-02-02T02:11:32.926Z,21.21
2023-02-02T02:12:37.217Z,21.21
2023-02-02T02:13:41.512Z,21.21
2023-02-02T02:14:45.796Z,21.19
2023-02-02T02:15:50.112Z,21.2
2023-02-02T02:16:54.463Z,21.2
2023-02-02T02:17:58.966Z,21.18
2023-02-02T02:19:03.234Z,21.18
2023-02-02T02:20:07.480Z,21.18
2023-02-02T02:21:11.811Z,21.18
2023-02-02T02:22:16.191Z,21.16
2023-02-02T02:23:20.460Z,21.15
2023-02-02T02:24:24.698Z,21.14
2023-02-02T02:25:29.016Z,21.14
2023-02-02T02:26:33.330Z,21.14
2023-02-02T02:27:37.842Z,21.15
2023-02-02T02:28:42.111Z,21.14
2023-02-02T02:29:46.351Z,21.14
2023-02-02T02:30:50.725Z,21.14
2023-02-02T02:31:55.243Z,21.13
2023-02-02T02:32:59.513Z,21.13
2023-02-02T02:34:03.795Z,21.12
2023-02-02T02:35:08.035Z,21.13
2023-02-02T02:36:12.313Z,21.13
2023-02-02T02:37:16.571Z,21.14
2023-02-02T02:38:20.857Z,21.13
2023-02-02T02:39:25.111Z,21.14
2023-02-02T02:40:29.373Z,21.14
2023-02-02T02:41:33.641Z,21.12
2023-02-02T02:42:37.904Z,21.11
2023-02-02T02:43:42.161Z,21.1
2023-02-02T02:44:46.428Z,21.11
2023-02-02T02:45:50.779Z,21.11
2023-02-02T02:46:55.183Z,21.08
2023-02-02T02:47:59.427Z,21.08
2023-02-02T02:49:03.751Z,21.07
2023-02-02T02:50:08.016Z,21.09
2023-02-02T02:51:12.285Z,21.08
2023-02-02T02:52:16.545Z,21.07
2023-02-02T02:53:20.891Z,21.06
2023-02-02T02:54:25.168Z,21.07
2023-02-02T02:55:29.531Z,21.08
2023-02-02T02:56:33.778Z,21.08
2023-02-02T02:57:38.004Z,21.08
2023-02-02T02:58:42.272Z,21.07
2023-02-02T02:59:46.534Z,21.06
2023-02-02T03:00:50.849Z,21.05
2023-02-02T03:01:55.121Z,21.05
2023-02-02T03:02:59.357Z,21.05
2023-02-02T03:04:03.613Z,21.05
2023-02-02T03:05:07.897Z,21.06
2023-02-02T03:06:12.152Z,21.05
2023-02-02T03:07:16.417Z,21.05
2023-02-02T03:08:20.671Z,21.03
2023-02-02T03:09:24.937Z,21.03
2023-02-02T03:10:29.227Z,21.05
2023-02-02T03:11:33.487Z,21.03
2023-02-02T03:12:37.739Z,21.02
2023-02-02T03:13:41.979Z,21.01
2023-02-02T03:14:46.228Z,21.01
2023-02-02T03:15:50.505Z,21.01
2023-02-02T03:16:54.949Z,21.02
2023-02-02T03:17:59.374Z,21.01
2023-02-02T03:19:03.611Z,21.02
2023-02-02T03:20:07.913Z,21.01
2023-02-02T03:21:12.215Z,21.03
2023-02-02T03:22:16.456Z,21.03
2023-02-02T03:23:20.740Z,21.01
2023-02-02T03:24:25.007Z,21
2023-02-02T03:25:29.267Z,20.97
2023-02-02T03:26:33.571Z,20.98
2023-02-02T03:27:38.008Z,20.98
2023-02-02T03:28:42.294Z,21
2023-02-02T03:29:46.586Z,20.99
2023-02-02T03:30:50.995Z,20.99
2023-02-02T03:31:55.602Z,20.99
2023-02-02T03:32:59.863Z,20.99
2023-02-02T03:34:04.117Z,20.99
2023-02-02T03:35:08.349Z,21
2023-02-02T03:36:12.630Z,21
2023-02-02T03:37:16.856Z,20.98
2023-02-02T03:38:21.123Z,20.97
2023-02-02T03:39:25.398Z,20.95
2023-02-02T03:40:29.695Z,20.93
2023-02-02T03:41:33.981Z,20.94
2023-02-02T03:42:38.296Z,20.92
2023-02-02T03:43:42.566Z,20.93
2023-02-02T03:44:46.834Z,20.95
2023-02-02T03:45:51.092Z,20.93
2023-02-02T03:46:55.382Z,20.95
2023-02-02T03:47:59.653Z,20.92
2023-02-02T03:49:03.916Z,20.93
2023-02-02T03:50:09.820Z,20.94
2023-02-02T03:51:14.159Z,20.94
2023-02-02T03:52:18.499Z,20.91
2023-02-02T03:53:22.766Z,20.92
2023-02-02T03:54:27.038Z,20.92
2023-02-02T03:55:31.302Z,20.91
2023-02-02T03:56:35.593Z,20.92
2023-02-02T03:57:39.870Z,20.9
2023-02-02T03:58:44.317Z,20.93
2023-02-02T03:59:48.714Z,20.92
2023-02-02T04:00:52.992Z,20.91
2023-02-02T04:01:57.419Z,20.91
2023-02-02T04:03:01.961Z,20.92
2023-02-02T04:04:06.464Z,20.92
2023-02-02T04:05:10.780Z,20.95
2023-02-02T04:06:15.074Z,20.94
2023-02-02T04:07:19.405Z,20.93
2023-02-02T04:08:23.660Z,20.95
2023-02-02T04:09:27.936Z,20.93
2023-02-02T04:10:32.241Z,20.92
2023-02-02T04:11:36.520Z,20.92
2023-02-02T04:12:42.754Z,20.94
2023-02-02T04:13:47.014Z,20.92
2023-02-02T04:14:51.276Z,20.92
2023-02-02T04:15:55.603Z,20.9
2023-02-02T04:16:59.963Z,20.91
2023-02-02T04:18:04.268Z,20.94
2023-02-02T04:19:08.545Z,20.91
2023-02-02T04:20:12.805Z,20.91
2023-02-02T04:21:17.092Z,20.88
2023-02-02T04:22:21.352Z,20.86
2023-02-02T04:23:25.641Z,20.87
2023-02-02T04:24:29.937Z,20.87
2023-02-02T04:25:34.204Z,20.91
2023-02-02T04:26:38.504Z,20.9
2023-02-02T04:27:43.030Z,20.91
2023-02-02T04:28:47.308Z,20.9
2023-02-02T04:29:51.707Z,20.91
2023-02-02T04:30:55.999Z,20.93
2023-02-02T04:32:00.509Z,20.93
2023-02-02T04:33:05.010Z,20.9
2023-02-02T04:34:09.300Z,20.91
2023-02-02T04:35:13.559Z,20.88
2023-02-02T04:36:17.858Z,20.86
2023-02-02T04:37:22.114Z,20.85
2023-02-02T04:38:26.391Z,20.86
2023-02-02T04:39:30.679Z,20.86
2023-02-02T04:40:34.933Z,20.89
2023-02-02T04:41:39.224Z,20.9
2023-02-02T04:42:43.494Z,20.88
2023-02-02T04:43:47.841Z,20.89
2023-02-02T04:44:52.106Z,20.93
2023-02-02T04:45:56.517Z,20.93
2023-02-02T04:47:01.086Z,20.9
2023-02-02T04:48:05.369Z,20.91
2023-02-02T04:49:09.671Z,20.87
2023-02-02T04:50:13.980Z,20.86
2023-02-02T04:51:18.300Z,20.86
2023-02-02T04:52:22.589Z,20.86
2023-02-02T04:53:26.856Z,20.87
2023-02-02T04:54:31.184Z,20.94
2023-02-02T04:55:35.497Z,20.99
2023-02-02T04:56:39.749Z,20.96
2023-02-02T04:57:43.993Z,20.91
2023-02-02T04:58:48.279Z,20.89
2023-02-02T04:59:52.543Z,20.82
2023-02-02T05:00:56.973Z,20.77
2023-02-02T05:02:01.365Z,20.72
2023-02-02T05:03:05.635Z,20.71
2023-02-02T05:04:09.956Z,20.75
2023-02-02T05:05:14.326Z,20.83
2023-02-02T05:06:18.616Z,20.93
2023-02-02T05:07:22.928Z,21.04
2023-02-02T05:08:27.193Z,21.08
2023-02-02T05:09:31.456Z,21.15
2023-02-02T05:10:35.784Z,21.21
2023-02-02T05:11:40.025Z,21.28
2023-02-02T05:12:44.317Z,21.36
2023-02-02T05:13:48.606Z,21.42
2023-02-02T05:14:52.864Z,21.52
2023-02-02T05:15:57.153Z,21.59
2023-02-02T05:17:01.550Z,21.69
2023-02-02T05:18:05.823Z,21.74
2023-02-02T05:19:10.110Z,21.79
2023-02-02T05:20:14.442Z,21.82
2023-02-02T05:21:18.719Z,21.86
2023-02-02T05:22:23.069Z,21.89
2023-02-02T05:23:27.395Z,21.91
2023-02-02T05:24:31.660Z,21.94
2023-02-02T05:25:35.927Z,21.94
2023-02-02T05:26:40.227Z,21.98
2023-02-02T05:27:44.559Z,22
2023-02-02T05:28:48.891Z,22.02
2023-02-02T05:29:53.206Z,22.05
2023-02-02T05:30:57.612Z,22.04
2023-02-02T05:32:02.021Z,22.06
2023-02-02T05:33:06.621Z,22.07
2023-02-02T05:34:11.132Z,22.08
2023-02-02T05:35:15.708Z,22.09
2023-02-02T05:36:20.050Z,22.12
2023-02-02T05:37:24.290Z,22.13
2023-02-02T05:38:28.548Z,22.14
2023-02-02T05:39:32.882Z,22.15
2023-02-02T05:40:37.151Z,22.15
2023-02-02T05:41:41.452Z,22.17
2023-02-02T05:42:45.743Z,22.18
2023-02-02T05:43:50.046Z,22.21
2023-02-02T05:44:54.316Z,22.22
2023-02-02T05:45:58.599Z,22.22
2023-02-02T05:47:03.162Z,22.23
2023-02-02T05:48:07.444Z,22.22
2023-02-02T05:49:11.685Z,22.24
2023-02-02T05:50:15.936Z,22.24
2023-02-02T05:51:20.222Z,22.25
2023-02-02T05:52:24.524Z,22.26
2023-02-02T05:53:28.804Z,22.29
2023-02-02T05:54:33.102Z,22.3
2023-02-02T05:55:37.364Z,22.3
2023-02-02T05:56:41.623Z,22.3
2023-02-02T05:57:46.011Z,22.3
2023-02-02T05:58:50.283Z,22.32
2023-02-02T05:59:54.547Z,22.3
2023-02-02T06:00:58.813Z,22.29
2023-02-02T06:02:03.070Z,22.31
2023-02-02T06:03:07.538Z,22.32
2023-02-02T06:04:12.196Z,22.33
2023-02-02T06:05:16.657Z,22.33
2023-02-02T06:06:20.949Z,22.33
2023-02-02T06:07:25.221Z,22.32
2023-02-02T06:08:29.534Z,22.32
2023-02-02T06:09:33.804Z,22.29
2023-02-02T06:10:38.126Z,22.27
2023-02-02T06:11:42.379Z,22.25
2023-02-02T06:12:46.657Z,22.25
2023-02-02T06:13:50.942Z,22.24
2023-02-02T06:14:55.199Z,22.22
2023-02-02T06:15:59.601Z,22.2
2023-02-02T06:17:04.035Z,22.17
2023-02-02T06:18:08.468Z,22.15
2023-02-02T06:19:12.835Z,22.13
2023-02-02T06:20:17.193Z,22.1
2023-02-02T06:21:24.960Z,22.07
2023-02-02T06:22:29.349Z,22.06
2023-02-02T06:23:33.598Z,22.04
2023-02-02T06:24:38.042Z,22.01
2023-02-02T06:25:42.319Z,22
2023-02-02T06:26:46.727Z,21.98
2023-02-02T06:27:51.170Z,21.95
2023-02-02T06:28:55.446Z,21.94
2023-02-02T06:29:59.747Z,21.9
2023-02-02T06:31:04.079Z,21.88
2023-02-02T06:32:08.765Z,21.86
2023-02-02T06:33:13.163Z,21.85
2023-02-02T06:34:17.472Z,21.84
2023-02-02T06:35:21.960Z,21.83
2023-02-02T06:36:27.073Z,21.84
2023-02-02T06:37:31.358Z,21.83
2023-02-02T06:38:35.778Z,21.85
2023-02-02T06:39:40.084Z,21.86
2023-02-02T06:40:44.326Z,21.89
2023-02-02T06:41:48.588Z,21.93
2023-02-02T06:42:52.871Z,21.99
2023-02-02T06:43:57.115Z,22.02
2023-02-02T06:45:01.439Z,22.07
2023-02-02T06:46:05.855Z,22.1
2023-02-02T06:47:10.287Z,22.14
2023-02-02T06:48:14.551Z,22.17
2023-02-02T06:49:18.848Z,22.19
2023-02-02T06:50:23.142Z,22.22
2023-02-02T06:51:27.415Z,22.23
2023-02-02T06:52:31.683Z,22.25
2023-02-02T06:53:35.983Z,22.25
2023-02-02T06:54:40.271Z,22.28
2023-02-02T06:55:44.579Z,22.29
2023-02-02T06:56:48.824Z,22.27
2023-02-02T06:57:53.104Z,22.25
2023-02-02T06:58:57.348Z,22.25
2023-02-02T07:00:01.634Z,22.25
2023-02-02T07:01:05.940Z,22.23
2023-02-02T07:02:10.284Z,22.2
2023-02-02T07:03:14.555Z,22.19
2023-02-02T07:04:19.005Z,22.17
2023-02-02T07:05:23.668Z,22.16
2023-02-02T07:06:32.383Z,22.14
2023-02-02T07:07:37.012Z,22.12
2023-02-02T07:08:41.369Z,22.1
2023-02-02T07:09:45.766Z,22.08
2023-02-02T07:11:09.668Z,22.05
2023-02-02T07:12:21.003Z,22.03
2023-02-02T07:13:26.086Z,22
2023-02-02T07:14:30.333Z,21.99
2023-02-02T07:15:34.653Z,21.95
2023-02-02T07:16:39.302Z,21.93
2023-02-02T07:17:43.600Z,21.91
2023-02-02T07:18:47.885Z,21.91
2023-02-02T07:19:52.220Z,21.88
2023-02-02T07:20:56.506Z,21.87
2023-02-02T07:22:00.912Z,21.85
2023-02-02T07:23:05.230Z,21.84
2023-02-02T07:24:09.805Z,21.81
2023-02-02T07:25:14.134Z,21.79
2023-02-02T07:26:18.505Z,21.78
2023-02-02T07:27:23.138Z,21.77
2023-02-02T07:28:27.469Z,21.74
2023-02-02T07:29:31.775Z,21.72
2023-02-02T07:30:36.109Z,21.71
2023-02-02T07:31:40.566Z,21.71
2023-02-02T07:32:45.193Z,21.71
2023-02-02T07:33:49.560Z,21.71
2023-02-02T07:34:53.858Z,21.73
2023-02-02T07:35:58.168Z,21.77
2023-02-02T07:37:02.551Z,21.81
2023-02-02T07:38:06.827Z,21.86
2023-02-02T07:39:11.108Z,21.92
2023-02-02T07:40:15.431Z,21.99
2023-02-02T07:41:19.751Z,22.05
2023-02-02T07:42:24.034Z,22.1
2023-02-02T07:43:28.321Z,22.15
2023-02-02T07:44:32.625Z,22.19
2023-02-02T07:45:37.263Z,22.24
2023-02-02T07:46:42.824Z,22.26
2023-02-02T07:47:47.228Z,22.29
2023-02-02T07:48:51.784Z,22.3
2023-02-02T07:49:56.180Z,22.3
2023-02-02T07:51:00.543Z,22.3
2023-02-02T07:52:04.902Z,22.29
2023-02-02T07:53:09.198Z,22.29
2023-02-02T07:54:13.500Z,22.25
2023-02-02T07:55:17.887Z,22.24
2023-02-02T07:56:22.190Z,22.23
2023-02-02T07:57:26.586Z,22.21
2023-02-02T07:58:30.852Z,22.19
2023-02-02T07:59:35.163Z,22.17
2023-02-02T08:00:39.479Z,22.15
2023-02-02T08:01:43.934Z,22.13
2023-02-02T08:02:48.466Z,22.11
2023-02-02T08:03:52.911Z,22.09
2023-02-02T08:04:57.214Z,22.07
2023-02-02T08:06:01.583Z,22.06
2023-02-02T08:07:05.896Z,22.03
2023-02-02T08:08:10.361Z,22
2023-02-02T08:09:14.848Z,21.98
2023-02-02T08:10:19.166Z,21.97
2023-02-02T08:11:23.512Z,21.94
2023-02-02T08:12:27.793Z,21.93
2023-02-02T08:13:32.124Z,21.91
2023-02-02T08:14:36.513Z,21.89
2023-02-02T08:15:40.973Z,21.87
2023-02-02T08:16:45.302Z,21.85
2023-02-02T08:17:49.649Z,21.84
2023-02-02T08:18:53.946Z,21.82
2023-02-02T08:19:58.311Z,21.81
2023-02-02T08:21:02.664Z,21.8
2023-02-02T08:22:07.031Z,21.78
2023-02-02T08:23:11.428Z,21.76
2023-02-02T08:24:15.782Z,21.74
2023-02-02T08:25:20.120Z,21.72
2023-02-02T08:26:24.450Z,21.71
2023-02-02T08:27:28.981Z,21.69
2023-02-02T08:28:33.351Z,21.68
2023-02-02T08:29:37.667Z,21.66
2023-02-02T08:30:42.055Z,21.66
2023-02-02T08:31:46.629Z,21.67
2023-02-02T08:32:51.244Z,21.66
2023-02-02T08:33:55.568Z,21.64
2023-02-02T08:34:59.882Z,21.61
2023-02-02T08:36:04.328Z,21.62
2023-02-02T08:37:08.675Z,21.64
2023-02-02T08:38:12.975Z,21.67
2023-02-02T08:39:17.261Z,21.71
2023-02-02T08:40:21.891Z,21.75
2023-02-02T08:41:26.462Z,21.82
2023-02-02T08:42:30.857Z,21.91
2023-02-02T08:43:35.199Z,21.98
2023-02-02T08:44:42.156Z,22.07
2023-02-02T08:47:08.938Z,22.2
2023-02-02T08:48:14.063Z,22.25
2023-02-02T08:49:18.381Z,22.3
2023-02-02T08:50:22.770Z,22.33
2023-02-02T08:51:27.065Z,22.36
2023-02-02T08:52:31.352Z,22.39
2023-02-02T08:53:35.661Z,22.41
2023-02-02T08:54:40.028Z,22.41
2023-02-02T08:55:44.315Z,22.41
2023-02-02T08:56:48.637Z,22.41
2023-02-02T08:57:52.965Z,22.39
2023-02-02T08:58:57.283Z,22.36
2023-02-02T09:00:01.597Z,22.36
2023-02-02T09:01:05.971Z,22.34
2023-02-02T09:02:10.693Z,22.33
2023-02-02T09:03:15.110Z,22.3
2023-02-02T09:04:19.393Z,22.28
2023-02-02T09:05:24.154Z,22.26
2023-02-02T09:06:29.486Z,22.24
2023-02-02T09:07:33.776Z,22.22
2023-02-02T09:08:38.157Z,22.21
2023-02-02T09:09:42.561Z,22.19
2023-02-02T09:10:46.962Z,22.17
2023-02-02T09:11:51.285Z,22.15
2023-02-02T09:12:55.589Z,22.12
2023-02-02T09:13:59.924Z,22.1
2023-02-02T09:15:04.275Z,22.08
2023-02-02T09:16:08.815Z,22.07
2023-02-02T09:17:13.383Z,22.04
2023-02-02T09:18:17.730Z,22.02
2023-02-02T09:19:22.140Z,22
2023-02-02T09:20:26.437Z,21.99
2023-02-02T09:21:30.745Z,21.97
2023-02-02T09:22:35.099Z,21.95
2023-02-02T09:23:39.388Z,21.93
2023-02-02T09:24:43.701Z,21.91
2023-02-02T09:25:47.984Z,21.89
2023-02-02T09:26:52.337Z,21.87
2023-02-02T09:27:56.874Z,21.86
2023-02-02T09:29:01.204Z,21.84
2023-02-02T09:30:05.507Z,21.83
2023-02-02T09:31:09.887Z,21.81
2023-02-02T09:32:14.377Z,21.81
2023-02-02T09:33:18.759Z,21.83
2023-02-02T09:34:23.076Z,21.85
2023-02-02T09:35:27.686Z,21.89
2023-02-02T09:36:32.113Z,21.94
2023-02-02T09:37:36.452Z,22.01
2023-02-02T09:38:40.741Z,22.07
2023-02-02T09:39:45.103Z,22.13
2023-02-02T09:40:49.386Z,22.18
2023-02-02T09:41:53.684Z,22.23
2023-02-02T09:42:58.050Z,22.28
2023-02-02T09:44:02.371Z,22.32
2023-02-02T09:45:06.796Z,22.35
2023-02-02T09:46:11.167Z,22.39
2023-02-02T09:47:15.704Z,22.4
2023-02-02T09:48:20.126Z,22.4
2023-02-02T09:49:24.416Z,22.43
2023-02-02T09:50:28.708Z,22.44
2023-02-02T09:51:33.071Z,22.44
2023-02-02T09:52:37.340Z,22.44
2023-02-02T09:53:54.565Z,22.45
2023-02-02T09:54:59.637Z,22.44
2023-02-02T09:56:03.944Z,22.41
2023-02-02T09:57:08.239Z,22.38
2023-02-02T09:58:12.557Z,22.38
2023-02-02T09:59:20.044Z,22.35
2023-02-02T10:00:27.804Z,22.32
2023-02-02T10:01:32.225Z,22.32
2023-02-02T10:02:36.713Z,22.29
2023-02-02T10:03:41.109Z,22.27
2023-02-02T10:04:45.602Z,22.25
2023-02-02T10:05:49.939Z,22.23
2023-02-02T10:06:54.297Z,22.21
2023-02-02T10:07:58.619Z,22.18
2023-02-02T10:09:03.257Z,22.17
2023-02-02T10:10:07.624Z,22.15
2023-02-02T10:11:11.925Z,22.13
2023-02-02T10:12:16.259Z,22.11
2023-02-02T10:13:20.720Z,22.1
2023-02-02T10:14:25.120Z,22.07
2023-02-02T10:15:29.646Z,22.07
2023-02-02T10:16:34.212Z,22.05
2023-02-02T10:17:38.546Z,22.02
2023-02-02T10:18:42.861Z,22.01
2023-02-02T10:19:47.403Z,21.99
2023-02-02T10:20:51.722Z,21.98
2023-02-02T10:21:56.050Z,21.98
2023-02-02T10:23:00.353Z,21.94
2023-02-02T10:24:04.698Z,21.92
2023-02-02T10:25:08.988Z,21.9
2023-02-02T10:26:13.309Z,21.88
2023-02-02T10:27:17.610Z,21.87
2023-02-02T10:28:21.909Z,21.86
2023-02-02T10:29:26.198Z,21.85
2023-02-02T10:30:45.820Z,21.84
2023-02-02T10:31:50.616Z,21.82
2023-02-02T10:32:55.428Z,21.79
2023-02-02T10:34:02.638Z,21.8
2023-02-02T10:35:13.750Z,21.79
2023-02-02T10:36:20.418Z,21.61
2023-02-02T10:37:25.021Z,21.43
2023-02-02T10:38:29.333Z,21.34
2023-02-02T10:39:33.661Z,21.25
2023-02-02T10:40:38.079Z,21.22
2023-02-02T10:41:42.516Z,21.15
2023-02-02T10:42:46.854Z,21.15
2023-02-02T10:43:52.332Z,21.11
2023-02-02T10:44:56.819Z,20.97
2023-02-02T10:46:01.365Z,20.93
2023-02-02T10:47:05.754Z,20.9
2023-02-02T10:48:10.126Z,20.85
2023-02-02T10:49:14.435Z,20.69
2023-02-02T10:50:18.972Z,20.72
2023-02-02T10:51:23.347Z,20.69
2023-02-02T10:52:27.743Z,20.62
2023-02-02T10:53:32.033Z,20.68
2023-02-02T10:54:50.267Z,20.8
2023-02-02T10:56:04.565Z,20.94
2023-02-02T10:57:08.823Z,21.04
2023-02-02T10:58:13.133Z,21.13
2023-02-02T10:59:17.445Z,21.18
2023-02-02T11:00:23.233Z,21.22
2023-02-02T11:01:29.025Z,21.27
2023-02-02T11:02:33.482Z,21.3
2023-02-02T11:03:37.956Z,21.33
2023-02-02T11:04:42.247Z,21.36
2023-02-02T11:05:46.570Z,21.38
2023-02-02T11:06:50.885Z,21.41
2023-02-02T11:07:55.228Z,21.42
2023-02-02T11:08:59.612Z,21.43
2023-02-02T11:10:03.963Z,21.44
2023-02-02T11:11:08.269Z,21.46
2023-02-02T11:12:12.598Z,21.46
2023-02-02T11:13:17.214Z,21.47
2023-02-02T11:14:21.527Z,21.47
2023-02-02T11:15:25.857Z,21.47
2023-02-02T11:16:39.178Z,21.47
2023-02-02T11:17:48.031Z,21.47
2023-02-02T11:18:52.394Z,21.47
2023-02-02T11:19:56.680Z,21.46
2023-02-02T11:21:01.001Z,21.47
2023-02-02T11:22:05.293Z,21.48
2023-02-02T11:23:09.629Z,21.5
2023-02-02T11:24:13.939Z,21.53
2023-02-02T11:25:18.232Z,21.58
2023-02-02T11:26:22.565Z,21.65
2023-02-02T11:27:26.996Z,21.71
2023-02-02T11:28:31.320Z,21.81
2023-02-02T11:29:35.661Z,21.88
2023-02-02T11:30:40.018Z,21.98
2023-02-02T11:31:44.473Z,22.04
2023-02-02T11:32:48.916Z,22.1
2023-02-02T11:33:53.251Z,22.15
2023-02-02T11:34:57.571Z,22.21
2023-02-02T11:36:01.908Z,22.27
2023-02-02T11:37:06.195Z,22.28
2023-02-02T11:38:10.486Z,22.31
2023-02-02T11:39:14.809Z,22.32
2023-02-02T11:40:19.171Z,22.31
2023-02-02T11:41:23.499Z,22.32
2023-02-02T11:42:27.814Z,22.3
2023-02-02T11:43:32.115Z,22.28
2023-02-02T11:44:36.413Z,22.27
2023-02-02T11:45:40.707Z,22.25
2023-02-02T11:46:45.138Z,22.24
2023-02-02T11:47:49.590Z,22.21
2023-02-02T11:48:53.885Z,22.18
2023-02-02T11:49:58.926Z,22.18
2023-02-02T11:51:06.524Z,22.15
2023-02-02T11:52:13.411Z,22.13
2023-02-02T11:53:17.730Z,22.09
2023-02-02T11:54:22.088Z,22.1
2023-02-02T11:55:26.387Z,22.08
2023-02-02T11:56:30.652Z,22.09
2023-02-02T11:57:34.963Z,22.07
2023-02-02T11:58:39.263Z,22.05
2023-02-02T11:59:43.556Z,22.03
2023-02-02T12:00:47.869Z,22.04
2023-02-02T12:01:52.305Z,22.02
2023-02-02T12:02:56.713Z,21.99
2023-02-02T12:04:01.059Z,21.98
2023-02-02T12:05:05.569Z,21.95
2023-02-02T12:06:09.855Z,21.91
2023-02-02T12:07:14.388Z,21.89
2023-02-02T12:08:18.699Z,21.88
2023-02-02T12:09:23.026Z,21.87
2023-02-02T12:10:27.572Z,21.85
2023-02-02T12:11:37.428Z,21.83
2023-02-02T12:12:42.455Z,21.8
2023-02-02T12:13:47.069Z,21.78
2023-02-02T12:14:51.353Z,21.76
2023-02-02T12:15:55.707Z,21.73
2023-02-02T12:17:00.257Z,21.73
2023-02-02T12:18:04.685Z,21.71
2023-02-02T12:19:08.967Z,21.69
2023-02-02T12:20:13.262Z,21.67
2023-02-02T12:21:17.588Z,21.67
2023-02-02T12:22:21.906Z,21.67
2023-02-02T12:23:26.534Z,21.65
2023-02-02T12:24:30.844Z,21.64
2023-02-02T12:25:35.469Z,21.64
2023-02-02T12:26:39.844Z,21.64
2023-02-02T12:27:44.280Z,21.6
2023-02-02T12:28:48.602Z,21.62
2023-02-02T12:29:53.012Z,21.62
2023-02-02T12:30:57.697Z,21.64
2023-02-02T12:32:02.355Z,21.64
2023-02-02T12:33:06.898Z,21.66
2023-02-02T12:34:11.966Z,21.66
2023-02-02T12:35:16.408Z,21.69
2023-02-02T12:36:20.703Z,21.72
2023-02-02T12:37:25.057Z,21.74
2023-02-02T12:38:29.494Z,21.77
2023-02-02T12:39:33.803Z,21.8
2023-02-02T12:40:38.510Z,21.84
2023-02-02T12:41:42.805Z,21.86
2023-02-02T12:42:47.121Z,21.88
2023-02-02T12:43:52.008Z,21.88
2023-02-02T12:44:56.295Z,21.9
2023-02-02T12:46:00.630Z,21.92
2023-02-02T12:47:05.048Z,21.93
2023-02-02T12:48:09.375Z,21.93
2023-02-02T12:49:13.658Z,21.92
2023-02-02T12:50:17.934Z,21.93
2023-02-02T12:51:22.226Z,21.93
2023-02-02T12:52:26.530Z,21.92
2023-02-02T12:53:30.847Z,21.92
2023-02-02T12:54:41.958Z,21.91
2023-02-02T12:56:00.321Z,21.9
2023-02-02T12:57:04.741Z,21.9
2023-02-02T12:58:09.943Z,21.89
2023-02-02T12:59:14.279Z,21.89
2023-02-02T13:00:18.556Z,21.88
2023-02-02T13:01:22.975Z,21.87
2023-02-02T13:02:27.730Z,21.85
2023-02-02T13:03:32.303Z,21.82
2023-02-02T13:06:06.745Z,21.8
2023-02-02T13:07:11.150Z,21.79
2023-02-02T13:08:15.487Z,21.78
2023-02-02T13:09:20.072Z,21.77
2023-02-02T13:10:24.709Z,21.76
2023-02-02T13:11:30.265Z,21.73
2023-02-02T13:12:34.604Z,21.73
2023-02-02T13:13:38.960Z,21.73
2023-02-02T13:14:43.257Z,21.72
2023-02-02T13:15:47.571Z,21.7
2023-02-02T13:16:51.945Z,21.72
2023-02-02T13:17:56.357Z,21.72
2023-02-02T13:19:00.657Z,21.71
2023-02-02T13:20:04.966Z,21.72
2023-02-02T13:21:09.242Z,21.7
2023-02-02T13:22:13.548Z,21.71
2023-02-02T13:23:17.868Z,21.71
2023-02-02T13:24:22.452Z,21.71
2023-02-02T13:25:27.191Z,21.69
2023-02-02T13:26:32.115Z,21.67
2023-02-02T13:27:36.828Z,21.64
2023-02-02T13:28:41.132Z,21.61
2023-02-02T13:29:47.826Z,21.61
2023-02-02T13:30:52.612Z,21.59
2023-02-02T13:31:57.453Z,21.59
2023-02-02T13:33:01.852Z,21.6
2023-02-02T13:34:06.161Z,21.59
2023-02-02T13:35:10.457Z,21.57
2023-02-02T13:36:14.909Z,21.55
2023-02-02T13:37:19.247Z,21.55
2023-02-02T13:38:23.561Z,21.54
2023-02-02T13:39:27.842Z,21.53
2023-02-02T13:40:32.194Z,21.55
2023-02-02T13:41:37.289Z,21.55
2023-02-02T13:42:41.611Z,21.54
2023-02-02T13:43:45.942Z,21.53
2023-02-02T13:44:50.250Z,21.54
2023-02-02T13:45:54.574Z,21.53
2023-02-02T13:46:59.037Z,21.5
2023-02-02T13:48:03.341Z,21.47
2023-02-02T13:49:07.639Z,21.43
2023-02-02T13:50:11.947Z,21.43
2023-02-02T13:51:16.301Z,21.45
2023-02-02T13:52:20.643Z,21.44
2023-02-02T13:53:24.961Z,21.47
2023-02-02T13:54:29.341Z,21.48
2023-02-02T13:55:33.676Z,21.44
2023-02-02T13:56:38.058Z,21.38
2023-02-02T13:57:42.374Z,21.35